createdAt,value
2023-03-15T00:00:56.315Z,0.51
2023-03-15T00:56:19.258Z,0.50
2023-03-15T01:00:20.341Z,0.50
2023-03-15T01:04:20.219Z,0.35
2023-03-15T01:08:20.064Z,0.43
2023-03-15T01:12:19.973Z,0.50
2023-03-15T01:16:20.067Z,0.51
2023-03-15T01:20:19.859Z,0.52
2023-03-15T01:24:19.654Z,0.52
2023-03-15T01:28:19.704Z,0.52
2023-03-15T01:32:19.569Z,0.53
2023-03-15T01:36:19.470Z,0.52
2023-03-15T01:40:19.368Z,0.51
2023-03-15T01:44:19.371Z,0.53
2023-03-15T01:48:19.193Z,0.52
2023-03-15T01:52:19.087Z,0.53
2023-03-15T01:56:19.046Z,0.56
2023-03-15T02:00:19.007Z,0.53
2023-03-15T02:04:18.837Z,0.51
2023-03-15T02:08:18.677Z,0.52
2023-03-15T02:12:18.575Z,0.53
2023-03-15T02:16:18.544Z,0.54
2023-03-15T02:20:18.400Z,0.53
2023-03-15T02:24:18.240Z,0.52
2023-03-15T02:28:18.134Z,0.52
2023-03-15T02:32:18.047Z,0.52
2023-03-15T02:36:17.969Z,0.55
2023-03-15T02:40:17.810Z,0.54
2023-03-15T02:44:17.925Z,0.53
2023-03-15T02:48:17.928Z,0.55
2023-03-15T02:52:17.730Z,0.54
2023-03-15T02:56:17.568Z,0.54
2023-03-15T03:00:17.481Z,0.55
2023-03-15T03:04:17.385Z,0.52
2023-03-15T03:08:17.313Z,0.52
2023-03-15T03:12:17.158Z,0.50
2023-03-15T03:16:17.053Z,0.52
2023-03-15T03:20:16.976Z,0.51
2023-03-15T03:24:16.969Z,0.53
2023-03-15T03:28:16.728Z,0.54
2023-03-15T03:32:16.714Z,0.54
2023-03-15T03:36:16.816Z,0.53
2023-03-15T03:40:16.670Z,0.53
2023-03-15T03:44:16.543Z,0.55
2023-03-15T03:48:16.509Z,0.55
2023-03-15T03:52:16.416Z,0.54
2023-03-15T03:56:16.271Z,0.51
2023-03-15T04:00:16.225Z,0.54
2023-03-15T04:04:16.348Z,0.54
2023-03-15T04:08:16.300Z,0.54
2023-03-15T04:12:16.133Z,0.54
2023-03-15T04:16:16.164Z,0.53
2023-03-15T04:20:15.965Z,0.53
2023-03-15T04:24:15.894Z,0.55
2023-03-15T04:28:15.791Z,0.53
2023-03-15T04:32:15.887Z,0.54
2023-03-15T04:36:15.852Z,0.56
2023-03-15T04:40:15.761Z,0.53
2023-03-15T04:44:15.636Z,0.53
2023-03-15T04:48:15.531Z,0.54
2023-03-15T04:52:15.495Z,0.52
2023-03-15T04:56:15.359Z,0.53
2023-03-15T05:00:15.249Z,0.53
2023-03-15T05:04:15.159Z,0.55
2023-03-15T05:08:15.036Z,0.54
2023-03-15T05:12:15.088Z,0.54
2023-03-15T05:16:14.953Z,0.53
2023-03-15T05:20:14.850Z,0.53
2023-03-15T05:24:14.909Z,0.55
2023-03-15T05:28:14.817Z,0.53
2023-03-15T05:32:14.757Z,0.53
2023-03-15T05:36:14.651Z,0.52
2023-03-15T05:40:14.522Z,0.54
2023-03-15T05:44:14.472Z,0.56
2023-03-15T05:48:14.399Z,0.52
2023-03-15T05:52:14.296Z,0.54
2023-03-15T05:56:14.412Z,0.53
2023-03-15T06:00:14.423Z,0.52
2023-03-15T06:04:14.349Z,0.54
2023-03-15T06:08:14.119Z,0.54
2023-03-15T06:12:14.026Z,0.54
2023-03-15T06:16:14.246Z,0.53
2023-03-15T06:20:13.789Z,0.54
2023-03-15T06:24:14.193Z,0.52
2023-03-15T06:28:13.726Z,0.53
2023-03-15T06:32:13.703Z,0.50
2023-03-15T06:36:13.739Z,0.58
2023-03-15T06:40:13.689Z,0.57
2023-03-15T06:44:13.712Z,0.57
2023-03-15T06:48:13.719Z,0.67
2023-03-15T06:52:13.231Z,0.60
2023-03-15T06:56:13.704Z,0.81
2023-03-15T07:00:13.046Z,1.10
2023-03-15T07:04:13.190Z,1.36
2023-03-15T07:08:13.300Z,2.04
2023-03-15T07:12:13.230Z,2.49
2023-03-15T07:16:13.359Z,2.95
2023-03-15T07:20:13.268Z,3.41
2023-03-15T07:24:13.231Z,3.85
2023-03-15T07:28:13.255Z,4.28
2023-03-15T07:32:13.450Z,4.70
2023-03-15T07:36:13.228Z,5.18
2023-03-15T07:40:13.201Z,5.67
2023-03-15T07:44:13.209Z,6.76
2023-03-15T07:48:13.211Z,5.34
2023-03-15T07:52:13.227Z,4.46
2023-03-15T07:56:12.770Z,3.68
2023-03-15T08:00:13.199Z,3.21
2023-03-15T08:04:13.223Z,2.62
2023-03-15T08:08:13.299Z,2.78
2023-03-15T08:12:12.708Z,2.95
2023-03-15T08:16:12.770Z,3.27
2023-03-15T08:20:12.756Z,3.55
2023-03-15T08:24:12.286Z,3.83
2023-03-15T08:28:12.729Z,4.14
2023-03-15T08:32:12.222Z,4.39
2023-03-15T08:36:12.840Z,4.47
2023-03-15T08:40:12.255Z,5.20
2023-03-15T08:44:12.239Z,6.06
2023-03-15T08:48:11.762Z,6.41
2023-03-15T08:52:11.841Z,6.73
2023-03-15T08:56:11.745Z,0.34
2023-03-15T09:00:11.203Z,0.34
2023-03-15T09:04:11.295Z,0.65
2023-03-15T09:08:11.282Z,0.82
2023-03-15T09:12:12.236Z,1.03
2023-03-15T09:16:11.145Z,0.97
2023-03-15T09:20:11.250Z,1.41
2023-03-15T09:24:11.234Z,1.45
2023-03-15T09:28:10.769Z,0.86
2023-03-15T09:32:11.078Z,1.56
2023-03-15T09:36:10.721Z,1.62
2023-03-15T10:16:30.805Z,0.74
2023-03-15T10:20:32.771Z,0.46
2023-03-15T10:56:31.691Z,0.98
2023-03-15T11:00:30.158Z,0.84
2023-03-15T19:12:41.454Z,6.36
2023-03-15T21:44:49.996Z,3.88
2023-03-15T21:48:50.235Z,3.73
2023-03-15T21:52:51.386Z,3.90
2023-03-15T21:56:50.767Z,3.69
2023-03-15T22:00:51.096Z,3.97
2023-03-15T22:04:51.363Z,3.91
2023-03-15T22:08:51.300Z,3.50
2023-03-15T22:12:51.318Z,3.64
2023-03-15T22:16:51.412Z,3.68
2023-03-15T22:20:51.365Z,3.63
2023-03-15T22:24:51.369Z,3.52
2023-03-15T22:28:51.392Z,3.65
2023-03-15T22:32:51.540Z,3.41
2023-03-15T22:36:51.440Z,3.64
2023-03-15T22:40:51.456Z,3.34
2023-03-15T23:44:52.070Z,2.98
2023-03-15T23:48:52.068Z,2.93
2023-03-15T23:52:52.103Z,2.95
2023-03-15T23:56:52.242Z,3.07
